Time;durP1;ratioP1;P1;durP2;ratioP2;P2;SDS_P1;SDS_P2;PMS_P1;PMS_P2;Temp;Humidity;BMP_temperature;BMP_pressure;BME280_temperature;BME280_humidity;BME280_pressure;Samples;Min_cycle;Max_cycle;Signal;HPM_P1;HPM_P2
2023/04/29 00:01:49;;;;;;;1.30;1.20;;;;;;;12.00;59.41;99068.84;5019609;28;20121;-66
2023/04/29 00:04:15;;;;;;;2.00;1.42;;;;;;;11.98;59.79;99056.75;5023051;28;20089;-66
2023/04/29 00:06:42;;;;;;;1.58;1.30;;;;;;;11.91;59.28;99059.28;5023095;28;20048;-66
2023/04/29 00:09:08;;;;;;;1.90;1.45;;;;;;;12.07;59.65;99053.78;5023034;28;20052;-66
2023/04/29 00:11:35;;;;;;;2.50;1.58;;;;;;;11.93;59.29;99041.31;5039435;28;20146;-66
2023/04/29 00:14:00;;;;;;;1.60;1.50;;;;;;;11.91;59.49;99043.31;5023034;28;20064;-66
2023/04/29 00:16:26;;;;;;;1.38;1.27;;;;;;;11.88;60.15;99055.13;5022642;28;20040;-66
2023/04/29 00:18:53;;;;;;;3.42;1.58;;;;;;;11.81;59.93;99050.72;5039198;28;20055;-66
2023/04/29 00:21:19;;;;;;;3.88;1.65;;;;;;;11.74;60.28;99041.81;5022815;28;20072;-66
2023/04/29 00:23:46;;;;;;;2.20;1.55;;;;;;;11.88;60.28;99041.84;5055651;28;20048;-66
2023/04/29 00:26:13;;;;;;;3.47;1.60;;;;;;;11.70;60.85;99036.00;5041889;28;20411;-66
2023/04/29 00:28:43;;;;;;;1.67;1.58;;;;;;;11.71;60.60;99031.53;5027712;28;20087;-66
2023/04/29 00:31:10;;;;;;;1.67;1.52;;;;;;;11.86;60.95;99019.91;5040397;28;20055;-67
2023/04/29 00:33:36;;;;;;;1.92;1.67;;;;;;;11.70;60.46;99027.22;5043773;28;20054;-66
2023/04/29 00:36:03;;;;;;;1.70;1.60;;;;;;;11.68;60.59;99018.59;5056319;28;20507;-66
2023/04/29 00:38:30;;;;;;;1.83;1.60;;;;;;;11.61;60.80;99013.13;5039007;28;20079;-65
2023/04/29 00:40:56;;;;;;;2.70;1.55;;;;;;;11.62;60.71;99011.31;5006669;28;20125;-66
2023/04/29 00:43:23;;;;;;;1.80;1.70;;;;;;;11.55;60.82;99013.84;5039174;28;20056;-66
2023/04/29 00:45:49;;;;;;;1.77;1.67;;;;;;;11.57;61.41;99013.66;5038862;28;20205;-66
2023/04/29 00:48:15;;;;;;;2.00;1.80;;;;;;;11.56;61.15;99015.50;5035210;28;20037;-66
2023/04/29 00:50:42;;;;;;;2.97;1.70;;;;;;;11.65;61.17;99018.97;5019009;28;20156;-67
2023/04/29 00:53:11;;;;;;;3.33;2.58;;;;;;;11.86;61.70;99027.91;5003128;28;20147;-66
2023/04/29 00:55:38;;;;;;;2.55;1.85;;;;;;;11.63;62.17;99023.63;5035805;28;20057;-66
2023/04/29 00:58:04;;;;;;;2.50;2.30;;;;;;;11.56;61.61;99030.66;5035654;28;20041;-66
2023/04/29 01:00:30;;;;;;;2.55;2.05;;;;;;;11.55;61.42;99027.16;5018739;28;20039;-66
2023/04/29 01:02:56;;;;;;;3.78;2.33;;;;;;;11.65;61.93;99040.22;5002650;28;20135;-66
2023/04/29 01:05:23;;;;;;;2.58;2.38;;;;;;;11.68;62.21;99037.22;5035286;28;20040;-66
2023/04/29 01:07:58;;;;;;;2.88;2.38;;;;;;;11.93;62.99;99030.69;5066171;28;20506;-66
2023/04/29 01:10:29;;;;;;;3.55;3.00;;;;;;;12.02;62.87;99039.38;5039464;28;20059;-66
2023/04/29 01:13:03;;;;;;;3.50;2.83;;;;;;;12.09;62.50;99054.44;5023160;28;20189;-66
2023/04/29 01:15:37;;;;;;;3.90;2.72;;;;;;;12.06;62.27;99035.34;5055960;28;20048;-66
2023/04/29 01:18:35;;;;;;;2.53;2.33;;;;;;;12.18;61.30;99042.69;5039742;28;20040;-66
2023/04/29 01:21:02;;;;;;;2.50;2.30;;;;;;;11.77;61.14;99042.28;5022892;28;20040;-66
2023/04/29 01:23:30;;;;;;;2.13;1.92;;;;;;;11.80;60.84;99044.59;5007625;28;20448;-66
2023/04/29 01:25:57;;;;;;;2.70;2.00;;;;;;;11.79;60.81;99050.09;5023102;28;20133;-66
2023/04/29 01:29:21;;;;;;;3.20;2.00;;;;;;;12.14;60.85;99045.91;5038358;28;20115;-65
2023/04/29 01:31:52;;;;;;;3.28;2.00;;;;;;;11.93;61.25;99041.31;5039232;28;20084;-66
2023/04/29 01:34:49;;;;;;;2.00;1.90;;;;;;;12.12;61.87;99042.59;5022925;28;20036;-66
2023/04/29 01:37:36;;;;;;;1.80;1.70;;;;;;;12.04;60.80;99043.50;5017793;28;20044;-66
2023/04/29 01:40:08;;;;;;;2.70;1.88;;;;;;;11.66;61.37;99045.38;5020499;28;20117;-67
2023/04/29 01:42:45;;;;;;;4.38;2.08;;;;;;;11.93;61.49;99042.13;5037886;28;20048;-67
2023/04/29 01:45:17;;;;;;;2.35;1.85;;;;;;;11.89;61.58;99046.16;5021169;28;20055;-67
2023/04/29 01:47:45;;;;;;;1.70;1.60;;;;;;;11.77;61.20;99041.44;5037759;28;20040;-67
2023/04/29 01:50:12;;;;;;;2.55;1.88;;;;;;;11.54;60.71;99053.91;5054696;28;20044;-68
2023/04/29 01:52:39;;;;;;;2.28;1.95;;;;;;;11.57;60.54;99054.41;5022253;28;20040;-67
2023/04/29 01:55:07;;;;;;;2.08;1.58;;;;;;;11.85;60.95;99062.66;5038737;28;20047;-66
2023/04/29 01:57:47;;;;;;;1.85;1.70;;;;;;;11.56;60.34;99055.38;5042783;28;20040;-67
2023/04/29 02:00:25;;;;;;;3.53;1.80;;;;;;;11.81;60.20;99053.38;5041905;28;20123;-66
2023/04/29 02:02:51;;;;;;;2.22;1.70;;;;;;;11.61;60.09;99046.88;5022611;28;20045;-66
2023/04/29 02:05:27;;;;;;;3.13;2.17;;;;;;;11.65;60.20;99043.69;5041401;28;20072;-66
2023/04/29 02:07:56;;;;;;;3.03;2.08;;;;;;;11.63;60.16;99044.91;5023345;28;20036;-65
2023/04/29 02:10:22;;;;;;;3.20;2.10;;;;;;;11.52;60.13;99038.13;5022484;28;20131;-66
2023/04/29 02:12:53;;;;;;;2.15;1.77;;;;;;;11.57;60.62;99043.75;5023353;28;20433;-66
2023/04/29 02:15:39;;;;;;;3.97;2.03;;;;;;;11.50;60.01;99049.97;5042978;28;20490;-66
2023/04/29 02:18:05;;;;;;;2.20;1.70;;;;;;;11.51;59.82;99052.44;5020997;28;20044;-66
2023/04/29 02:20:31;;;;;;;2.42;1.83;;;;;;;11.42;60.28;99039.38;5020747;28;20079;-65
2023/04/29 02:22:58;;;;;;;3.35;1.92;;;;;;;11.37;60.79;99049.72;5037017;28;20052;-66
2023/04/29 02:25:23;;;;;;;2.33;1.77;;;;;;;11.34;61.24;99058.88;4997381;28;20506;-67
2023/04/29 02:27:51;;;;;;;1.48;1.38;;;;;;;11.63;60.93;99060.84;4965461;28;20053;-66
2023/04/29 02:30:17;;;;;;;3.63;1.17;;;;;;;11.31;59.99;99071.69;4965184;28;20148;-67
2023/04/29 02:32:43;;;;;;;1.08;1.08;;;;;;;11.23;59.54;99077.91;4997786;28;20048;-66
2023/04/29 02:35:08;;;;;;;1.95;1.25;;;;;;;11.19;59.28;99083.75;4997574;28;20049;-66
2023/04/29 02:37:34;;;;;;;1.73;1.20;;;;;;;11.19;59.81;99091.72;4965279;28;20049;-66
2023/04/29 02:40:02;;;;;;;0.98;0.98;;;;;;;11.21;60.33;99087.88;4997277;28;20061;-67
2023/04/29 02:42:30;;;;;;;1.20;1.10;;;;;;;11.29;59.52;99101.13;4997559;28;20506;-67
2023/04/29 02:44:57;;;;;;;1.00;1.00;;;;;;;11.25;59.75;99105.13;4981168;28;20064;-66
2023/04/29 02:47:23;;;;;;;1.40;1.27;;;;;;;11.27;59.53;99118.25;5015714;28;20048;-66
2023/04/29 02:49:49;;;;;;;1.58;1.08;;;;;;;11.24;59.69;99113.28;4997105;28;20061;-66
2023/04/29 02:52:16;;;;;;;3.25;1.50;;;;;;;11.24;60.12;99107.97;4965029;28;20049;-69
2023/04/29 02:54:42;;;;;;;1.70;1.25;;;;;;;11.38;60.10;99126.66;4997588;28;20207;-67
2023/04/29 02:57:08;;;;;;;1.30;1.10;;;;;;;11.28;59.81;99127.88;5013484;28;20057;-67
2023/04/29 02:59:34;;;;;;;1.85;1.35;;;;;;;11.32;59.86;99135.31;4964965;28;20111;-67
2023/04/29 03:02:02;;;;;;;3.10;1.45;;;;;;;11.32;59.67;99132.66;4972041;28;20109;-67
2023/04/29 03:04:28;;;;;;;1.90;1.40;;;;;;;11.32;59.53;99135.31;5003704;28;20053;-67
2023/04/29 03:06:55;;;;;;;3.80;1.30;;;;;;;11.30;59.26;99145.28;5020316;28;20047;-67
2023/04/29 03:09:22;;;;;;;1.30;1.20;;;;;;;11.27;59.81;99152.81;5036391;28;20051;-67
2023/04/29 03:11:49;;;;;;;3.03;1.10;;;;;;;11.19;59.95;99151.00;5052630;28;20045;-67
2023/04/29 03:14:15;;;;;;;1.40;1.30;;;;;;;11.24;59.70;99151.31;5003918;28;20044;-67
2023/04/29 03:16:43;;;;;;;1.35;1.08;;;;;;;11.20;60.30;99149.19;5036594;28;20048;-67
2023/04/29 03:19:09;;;;;;;1.30;1.20;;;;;;;11.21;59.86;99153.50;5020097;28;20082;-67
2023/04/29 03:21:35;;;;;;;5.60;1.30;;;;;;;11.22;60.21;99141.88;5037191;28;20052;-67
2023/04/29 03:24:02;;;;;;;2.05;1.20;;;;;;;11.30;59.61;99155.13;5021176;28;20051;-67
2023/04/29 03:26:32;;;;;;;1.08;1.05;;;;;;;11.16;58.70;99151.34;5022242;28;20047;-67
2023/04/29 03:28:59;;;;;;;1.33;1.10;;;;;;;11.14;59.03;99163.16;5020022;28;20048;-66
2023/04/29 03:31:26;;;;;;;1.27;1.10;;;;;;;11.13;59.23;99164.16;5004042;28;20593;-66
2023/04/29 03:33:53;;;;;;;1.48;1.15;;;;;;;11.26;59.80;99164.44;5003723;28;20048;-67
2023/04/29 03:36:20;;;;;;;1.30;1.15;;;;;;;11.08;58.70;99169.16;5020057;28;20518;-66
2023/04/29 03:38:55;;;;;;;1.13;1.02;;;;;;;11.02;58.14;99173.34;5006353;28;20060;-66
2023/04/29 03:41:23;;;;;;;0.95;0.90;;;;;;;10.99;57.81;99170.22;5019934;28;20102;-67
2023/04/29 03:43:50;;;;;;;1.30;0.93;;;;;;;10.97;58.08;99180.16;5036682;28;20514;-68
2023/04/29 03:46:18;;;;;;;2.70;1.10;;;;;;;11.18;58.28;99183.06;5053109;28;20055;-67
2023/04/29 03:48:44;;;;;;;1.20;1.10;;;;;;;10.88;58.47;99184.69;5036427;28;20088;-66
2023/04/29 03:51:10;;;;;;;0.98;0.98;;;;;;;10.97;58.62;99188.13;5052771;28;20071;-67
2023/04/29 03:53:36;;;;;;;1.25;1.10;;;;;;;10.97;58.56;99201.44;5019726;28;20060;-68
2023/04/29 03:56:04;;;;;;;1.48;1.02;;;;;;;11.06;59.10;99187.09;5036372;28;20174;-68
2023/04/29 03:58:31;;;;;;;1.27;1.17;;;;;;;11.19;59.52;99187.41;5052814;28;20051;-68
2023/04/29 04:00:57;;;;;;;1.88;1.02;;;;;;;11.10;58.64;99194.56;5021470;28;20048;-67
2023/04/29 04:03:31;;;;;;;3.28;1.20;;;;;;;11.13;59.04;99188.09;5043126;28;20044;-69
2023/04/29 04:05:58;;;;;;;1.00;1.00;;;;;;;11.05;57.34;99196.94;5024810;28;20041;-68
2023/04/29 04:08:24;;;;;;;3.75;2.40;;;;;;;11.05;56.88;99191.63;5040714;28;20055;-68
2023/04/29 04:10:54;;;;;;;9.73;2.65;;;;;;;11.06;57.30;99201.22;5025514;28;20036;-66
2023/04/29 04:13:39;;;;;;;3.77;1.60;;;;;;;11.13;57.03;99212.00;5025264;28;20048;-67
2023/04/29 04:16:07;;;;;;;5.63;1.45;;;;;;;11.04;57.54;99207.72;5008789;28;20056;-67
2023/04/29 04:18:33;;;;;;;5.85;1.50;;;;;;;11.07;57.74;99208.19;5006619;28;20068;-66
2023/04/29 04:21:06;;;;;;;1.75;1.10;;;;;;;11.44;57.56;99205.72;5006278;28;20044;-66
2023/04/29 04:23:33;;;;;;;1.58;1.00;;;;;;;11.12;56.92;99199.69;5028117;28;20049;-69
2023/04/29 04:26:01;;;;;;;4.05;1.55;;;;;;;11.20;57.37;99199.69;5005752;28;20147;-66
2023/04/29 04:28:46;;;;;;;1.42;1.13;;;;;;;11.33;57.45;99202.63;5040720;28;20056;-66
2023/04/29 04:31:19;;;;;;;1.98;1.17;;;;;;;11.38;57.65;99201.09;5022162;28;20072;-65
2023/04/29 04:33:45;;;;;;;1.25;1.15;;;;;;;11.38;56.37;99205.56;5020183;28;20056;-66
2023/04/29 04:36:12;;;;;;;1.30;1.20;;;;;;;11.36;56.78;99191.66;5013245;28;20040;-66
2023/04/29 04:38:38;;;;;;;1.20;1.10;;;;;;;11.43;57.82;99193.44;5004741;28;20048;-65
2023/04/29 04:41:09;;;;;;;0.98;0.95;;;;;;;11.53;56.35;99198.53;5005642;28;20089;-66
2023/04/29 04:43:39;;;;;;;1.40;1.30;;;;;;;11.58;55.76;99202.31;5042753;28;20123;-66
2023/04/29 04:46:13;;;;;;;1.15;1.00;;;;;;;11.73;55.58;99199.78;5060399;28;20047;-66
2023/04/29 04:48:47;;;;;;;2.85;1.00;;;;;;;11.67;54.94;99203.97;5057268;28;20040;-66
2023/04/29 04:51:14;;;;;;;1.27;1.17;;;;;;;11.85;55.43;99199.19;5065535;28;20071;-66
2023/04/29 04:53:43;;;;;;;2.20;0.90;;;;;;;11.74;55.19;99207.59;5044093;28;20052;-65
2023/04/29 04:56:17;;;;;;;1.20;1.00;;;;;;;11.81;54.83;99197.88;5061217;28;20355;-66
2023/04/29 04:58:43;;;;;;;1.05;0.95;;;;;;;11.77;54.42;99193.09;5043122;28;20139;-67
2023/04/29 05:01:10;;;;;;;1.50;1.23;;;;;;;11.97;54.44;99191.63;5042854;28;20497;-67
2023/04/29 05:03:36;;;;;;;1.63;1.10;;;;;;;11.83;53.86;99195.88;5038813;28;20041;-66
2023/04/29 05:06:02;;;;;;;1.25;1.05;;;;;;;11.87;54.28;99191.00;5039194;28;20455;-66
2023/04/29 05:08:29;;;;;;;2.55;1.40;;;;;;;11.90;53.82;99193.31;4998512;28;20059;-66
2023/04/29 05:10:58;;;;;;;2.72;1.27;;;;;;;11.90;54.30;99202.13;4995169;28;20485;-66
2023/04/29 05:13:25;;;;;;;1.30;1.20;;;;;;;12.01;54.67;99203.56;4984351;28;20399;-68
2023/04/29 05:15:51;;;;;;;1.77;1.27;;;;;;;11.96;54.76;99213.09;5016178;28;20392;-71
2023/04/29 05:18:22;;;;;;;2.65;1.27;;;;;;;11.93;54.01;99211.63;4991412;28;20076;-69
2023/04/29 05:20:50;;;;;;;2.53;1.30;;;;;;;11.98;53.95;99227.06;4985598;28;20056;-67
2023/04/29 05:23:16;;;;;;;3.45;1.77;;;;;;;11.92;54.06;99230.44;4984364;28;20049;-68
2023/04/29 05:25:44;;;;;;;1.73;1.40;;;;;;;11.95;54.27;99224.75;4985202;28;20360;-68
2023/04/29 05:28:12;;;;;;;2.53;1.40;;;;;;;11.93;53.51;99220.41;5017051;28;20146;-69
2023/04/29 05:30:40;;;;;;;2.08;1.30;;;;;;;11.93;53.21;99221.44;5017195;28;20048;-67
2023/04/29 05:33:07;;;;;;;1.40;1.30;;;;;;;11.92;53.69;99219.78;4985774;28;20060;-67
2023/04/29 05:35:32;;;;;;;1.33;1.20;;;;;;;11.92;53.74;99225.91;4980725;28;20502;-73
2023/04/29 05:38:03;;;;;;;1.30;1.20;;;;;;;11.96;54.31;99231.72;4987999;28;20391;-71
2023/04/29 05:40:39;;;;;;;2.38;1.38;;;;;;;12.03;53.69;99230.00;5020993;28;20043;-71
2023/04/29 05:43:19;;;;;;;2.35;1.23;;;;;;;12.17;52.90;99235.41;5058506;28;20225;-71
2023/04/29 05:45:48;;;;;;;3.28;1.50;;;;;;;12.57;53.00;99237.72;5033336;28;20037;-71
2023/04/29 05:48:14;;;;;;;2.50;1.70;;;;;;;12.26;52.80;99252.97;5017909;28;20044;-70
2023/04/29 05:50:40;;;;;;;2.72;1.77;;;;;;;12.28;52.44;99250.97;5017397;28;20048;-70
2023/04/29 05:53:07;;;;;;;3.88;1.83;;;;;;;12.29;51.40;99255.28;5018810;28;20047;-73
2023/04/29 05:55:34;;;;;;;3.83;1.70;;;;;;;12.57;52.03;99256.38;5050064;28;20075;-73
2023/04/29 05:58:00;;;;;;;2.92;1.70;;;;;;;12.59;51.34;99251.69;4979037;28;20054;-73
2023/04/29 06:00:30;;;;;;;1.73;1.50;;;;;;;12.98;51.33;99262.97;4963253;28;20053;-71
2023/04/29 06:03:05;;;;;;;2.67;1.60;;;;;;;12.89;50.11;99266.72;4965914;28;20049;-72
2023/04/29 06:05:32;;;;;;;2.65;1.88;;;;;;;13.03;50.06;99271.28;4963342;28;20049;-73
2023/04/29 06:08:16;;;;;;;1.95;1.55;;;;;;;13.07;49.16;99274.41;4984105;28;20076;-71
2023/04/29 06:10:45;;;;;;;2.70;1.50;;;;;;;13.10;48.92;99284.72;4979061;28;20229;-71
2023/04/29 06:13:11;;;;;;;4.05;1.90;;;;;;;13.19;48.90;99281.78;4979416;28;20937;-72
2023/04/29 06:15:38;;;;;;;5.80;2.10;;;;;;;13.24;48.69;99292.72;4996060;28;20075;-72
2023/04/29 06:18:05;;;;;;;3.58;1.98;;;;;;;13.44;48.77;99293.00;4995030;28;20060;-72
2023/04/29 06:20:33;;;;;;;5.78;2.17;;;;;;;13.44;48.62;99299.16;4978606;28;20084;-72
2023/04/29 06:23:00;;;;;;;1.88;1.63;;;;;;;13.71;48.06;99312.84;5010064;28;20453;-72
2023/04/29 06:25:27;;;;;;;4.15;1.90;;;;;;;13.75;47.84;99309.63;4979043;28;20042;-72
2023/04/29 06:27:56;;;;;;;2.42;2.08;;;;;;;14.29;46.51;99318.09;4980805;28;20050;-74
2023/04/29 06:30:25;;;;;;;2.35;1.67;;;;;;;14.24;45.34;99318.66;5018356;28;20048;-73
2023/04/29 06:32:52;;;;;;;1.80;1.48;;;;;;;14.33;44.84;99325.53;5018187;28;20063;-71
2023/04/29 06:35:19;;;;;;;2.28;1.70;;;;;;;14.63;44.68;99326.25;5017778;28;20044;-73
2023/04/29 06:38:14;;;;;;;1.65;1.50;;;;;;;14.82;43.98;99330.97;4969426;28;20401;-74
2023/04/29 06:40:56;;;;;;;1.90;1.63;;;;;;;15.18;43.39;99337.03;5036745;28;20106;-70
2023/04/29 06:43:43;;;;;;;4.18;1.52;;;;;;;15.59;42.67;99334.47;5036468;28;20059;-75
2023/04/29 06:46:45;;;;;;;1.50;1.40;;;;;;;16.22;41.29;99337.63;5017580;28;20087;-77
2023/04/29 06:49:30;;;;;;;2.15;1.77;;;;;;;16.43;40.19;99342.03;5046761;28;20060;-75
2023/04/29 06:51:58;;;;;;;3.88;1.80;;;;;;;16.91;40.12;99346.25;5017502;28;20498;-76
2023/04/29 06:54:26;;;;;;;2.28;1.45;;;;;;;17.09;39.28;99343.78;5016096;28;20052;-75
2023/04/29 06:56:53;;;;;;;2.13;1.63;;;;;;;17.41;38.25;99344.78;5034441;28;20045;-75
2023/04/29 06:59:22;;;;;;;2.17;1.45;;;;;;;17.67;38.07;99350.13;5017253;28;20094;-75
2023/04/29 07:01:48;;;;;;;4.95;2.00;;;;;;;17.48;37.52;99351.03;5017548;28;20186;-73
2023/04/29 07:04:14;;;;;;;3.05;2.00;;;;;;;17.41;37.74;99352.84;5017550;28;20507;-75
2023/04/29 07:06:40;;;;;;;3.50;1.85;;;;;;;17.37;37.93;99360.50;5017547;28;20048;-73
2023/04/29 07:09:06;;;;;;;2.65;1.90;;;;;;;17.57;37.82;99357.81;5017627;28;20048;-74
2023/04/29 07:11:33;;;;;;;2.13;1.70;;;;;;;17.92;36.96;99372.59;5033453;28;20041;-73
2023/04/29 07:14:02;;;;;;;2.20;1.77;;;;;;;18.39;36.22;99372.25;5050313;28;20051;-73
2023/04/29 07:16:29;;;;;;;4.22;2.15;;;;;;;19.19;nan;99374.22;4997260;28;20053;-74
2023/04/29 07:18:55;;;;;;;5.25;2.20;;;;;;;20.05;32.81;99374.00;4997641;28;20060;-73
2023/04/29 07:21:22;;;;;;;5.40;2.20;;;;;;;21.18;31.82;99372.28;5000337;28;20090;-74
2023/04/29 07:23:49;;;;;;;3.42;1.80;;;;;;;21.20;30.31;99367.50;5000589;28;20060;-73
2023/04/29 07:26:17;;;;;;;5.43;1.90;;;;;;;21.23;30.15;99367.03;5010245;28;20053;-72
2023/04/29 07:28:50;;;;;;;4.53;1.83;;;;;;;21.98;29.74;99374.22;4978089;28;20057;-74
2023/04/29 07:31:16;;;;;;;5.95;2.10;;;;;;;22.38;28.37;99368.81;5012520;28;20123;-73
2023/04/29 07:33:46;;;;;;;2.03;1.70;;;;;;;22.46;28.25;99360.34;4996244;28;20546;-74
2023/04/29 07:36:12;;;;;;;2.63;1.60;;;;;;;21.73;28.04;99370.91;4998229;28;20053;-74
2023/04/29 07:38:42;;;;;;;2.25;1.60;;;;;;;21.45;28.40;99379.72;4994946;28;20053;-75
2023/04/29 07:41:11;;;;;;;4.05;1.95;;;;;;;21.31;28.43;99377.50;4991771;28;20050;-74
2023/04/29 07:43:38;;;;;;;4.47;1.88;;;;;;;21.21;28.68;99375.38;4943467;28;20077;-75
2023/04/29 07:46:04;;;;;;;3.65;2.03;;;;;;;21.14;28.99;99385.44;4959239;28;20062;-76
2023/04/29 07:48:38;;;;;;;2.10;1.73;;;;;;;21.11;29.12;99382.41;4980114;28;20057;-73
2023/04/29 07:51:06;;;;;;;3.42;2.15;;;;;;;20.47;29.62;99393.88;4998450;28;20168;-73
2023/04/29 07:53:32;;;;;;;2.35;2.10;;;;;;;19.75;30.26;99388.44;4981586;28;20099;-74
2023/04/29 07:55:57;;;;;;;7.60;2.60;;;;;;;19.71;31.17;99393.44;4996590;28;20462;-75
2023/04/29 07:58:25;;;;;;;13.55;3.10;;;;;;;20.43;30.48;99403.47;5020688;28;20056;-74
2023/04/29 08:00:52;;;;;;;4.68;2.70;;;;;;;21.39;29.53;99404.16;5037381;28;20080;-75
2023/04/29 08:03:27;;;;;;;9.60;2.60;;;;;;;23.27;26.83;99413.09;5058408;28;20837;-72
2023/04/29 08:05:55;;;;;;;4.03;2.58;;;;;;;23.56;26.23;99413.84;5059899;28;20056;-74
2023/04/29 08:08:24;;;;;;;6.43;2.65;;;;;;;25.13;24.18;99404.78;5023663;28;20057;-73
2023/04/29 08:10:51;;;;;;;6.32;3.35;;;;;;;25.65;23.37;99411.25;5040008;28;20056;-74
2023/04/29 08:13:20;;;;;;;3.38;2.15;;;;;;;25.69;23.33;99412.38;5043701;28;20044;-75
2023/04/29 08:15:46;;;;;;;3.38;2.85;;;;;;;24.59;23.91;99409.34;5026225;28;20478;-73
2023/04/29 08:18:12;;;;;;;3.97;2.60;;;;;;;23.57;25.46;99406.53;4983105;28;20056;-74
2023/04/29 08:20:40;;;;;;;3.70;2.50;;;;;;;22.58;26.96;99409.88;4980547;28;20075;-73
2023/04/29 08:23:08;;;;;;;4.20;3.08;;;;;;;22.29;27.62;99408.16;4997358;28;20068;-74
2023/04/29 08:25:34;;;;;;;3.22;2.55;;;;;;;23.36;26.48;99416.22;4993609;28;20100;-73
2023/04/29 08:28:01;;;;;;;6.57;2.60;;;;;;;23.84;25.08;99412.91;4979114;28;20077;-73
2023/04/29 08:30:27;;;;;;;8.15;5.63;;;;;;;23.30;25.61;99411.78;4995155;28;20503;-73
2023/04/29 08:32:54;;;;;;;4.60;2.90;;;;;;;24.92;23.88;99414.63;5011306;28;20058;-73
2023/04/29 08:35:21;;;;;;;3.95;2.92;;;;;;;26.24;22.71;99420.94;5012607;28;20050;-73
2023/04/29 08:37:47;;;;;;;6.65;2.03;;;;;;;27.61;21.13;99423.78;4957889;28;20054;-73
2023/04/29 08:40:13;;;;;;;2.70;2.15;;;;;;;27.57;20.59;99419.94;4942165;28;20066;-74
2023/04/29 08:42:38;;;;;;;4.40;2.28;;;;;;;27.08;20.93;99420.69;4976868;28;20586;-73
2023/04/29 08:45:05;;;;;;;4.68;2.50;;;;;;;26.87;21.24;99416.28;4976888;28;20054;-74
2023/04/29 08:47:33;;;;;;;2.90;2.03;;;;;;;25.96;21.71;99421.28;4961016;28;20046;-74
2023/04/29 08:50:06;;;;;;;3.95;2.20;;;;;;;24.81;23.27;99417.50;4993835;28;20517;-73
2023/04/29 08:52:33;;;;;;;6.80;2.20;;;;;;;23.66;24.94;99429.47;5019253;28;20044;-74
2023/04/29 08:55:04;;;;;;;2.70;1.83;;;;;;;23.04;24.76;99428.63;5036030;28;20103;-73
2023/04/29 08:57:38;;;;;;;4.68;2.03;;;;;;;23.02;25.01;99430.75;4961153;28;20050;-73
2023/04/29 09:00:09;;;;;;;3.75;2.10;;;;;;;24.36;23.54;99431.31;4961228;28;20058;-74
2023/04/29 09:02:49;;;;;;;4.70;2.33;;;;;;;27.41;21.12;99437.41;4951584;28;20058;-74
2023/04/29 09:05:16;;;;;;;4.88;2.20;;;;;;;29.33;19.30;99444.81;4964115;28;20466;-74
2023/04/29 09:07:43;;;;;;;9.30;2.95;;;;;;;29.20;18.82;99445.44;4982548;28;20107;-74
2023/04/29 09:10:10;;;;;;;5.03;2.05;;;;;;;31.16;17.34;99446.19;4986378;28;20131;-74
2023/04/29 09:12:36;;;;;;;5.75;2.13;;;;;;;32.89;15.33;99444.50;5002697;28;20141;-74
2023/04/29 09:15:03;;;;;;;3.58;2.03;;;;;;;34.99;13.17;99445.69;5002993;28;20049;-74
2023/04/29 09:17:47;;;;;;;6.00;2.20;;;;;;;37.01;11.75;99444.78;5003307;28;20053;-74
2023/04/29 09:20:20;;;;;;;2.60;1.50;;;;;;;36.29;12.15;99446.13;4986260;28;20037;-74
2023/04/29 09:22:50;;;;;;;3.08;1.60;;;;;;;36.38;12.01;99444.16;5035068;28;20049;-74
2023/04/29 09:25:16;;;;;;;3.65;1.67;;;;;;;36.86;11.35;99442.63;5035426;28;20416;-75
2023/04/29 09:27:43;;;;;;;5.20;1.63;;;;;;;38.17;10.60;99438.09;5026638;28;20124;-75
2023/04/29 09:30:11;;;;;;;4.78;1.88;;;;;;;38.31;10.19;99435.78;5059686;28;20044;-75
2023/04/29 09:32:38;;;;;;;3.92;1.70;;;;;;;37.22;10.60;99425.44;5042878;28;20044;-74
2023/04/29 09:35:24;;;;;;;3.13;1.40;;;;;;;37.56;10.13;99441.78;5060246;28;20044;-74
2023/04/29 09:37:53;;;;;;;5.32;1.40;;;;;;;35.52;11.60;99437.97;5076102;28;20181;-74
2023/04/29 09:40:31;;;;;;;3.53;1.40;;;;;;;34.22;11.69;99440.72;5059768;28;20040;-74
2023/04/29 09:42:58;;;;;;;4.45;1.60;;;;;;;34.81;11.50;99444.84;5076361;28;20032;-74
2023/04/29 09:45:35;;;;;;;5.13;1.75;;;;;;;35.80;10.57;99444.75;5042900;28;20052;-74
2023/04/29 09:48:03;;;;;;;2.55;1.33;;;;;;;34.49;11.14;99445.22;5043175;28;20046;-74
2023/04/29 09:50:32;;;;;;;2.08;1.40;;;;;;;33.92;11.51;99440.72;5042963;28;20088;-74
2023/04/29 09:52:59;;;;;;;5.40;1.63;;;;;;;32.33;12.56;99443.97;5042846;28;20047;-74
2023/04/29 09:55:26;;;;;;;5.82;1.92;;;;;;;30.73;14.12;99437.16;5059224;28;20497;-74
2023/04/29 09:57:55;;;;;;;5.65;2.47;;;;;;;29.50;14.84;99438.94;5074935;28;20090;-74
2023/04/29 10:00:23;;;;;;;11.70;2.28;;;;;;;28.06;16.41;99436.59;5092565;28;20044;-73
2023/04/29 10:02:50;;;;;;;7.75;2.20;;;;;;;26.76;17.71;99439.97;5042543;28;20508;-74
2023/04/29 10:05:18;;;;;;;8.40;2.55;;;;;;;26.01;18.97;99440.41;5058940;28;20424;-74
2023/04/29 10:07:46;;;;;;;3.85;2.20;;;;;;;25.75;18.72;99441.25;5059523;28;20051;-73
2023/04/29 10:10:12;;;;;;;9.27;2.10;;;;;;;25.53;18.86;99436.97;5059478;28;20040;-73
2023/04/29 10:12:41;;;;;;;6.65;3.28;;;;;;;25.91;18.65;99437.56;5042446;28;20097;-74
2023/04/29 10:15:35;;;;;;;5.18;2.38;;;;;;;26.17;17.98;99442.09;5058359;28;20128;-75
2023/04/29 10:18:30;;;;;;;5.65;1.92;;;;;;;26.20;17.30;99460.63;5040961;28;20047;-74
2023/04/29 10:20:59;;;;;;;9.05;2.13;;;;;;;25.79;17.64;99458.69;5057768;28;20132;-73
2023/04/29 10:23:26;;;;;;;3.80;1.70;;;;;;;25.45;17.99;99459.25;5040982;28;20060;-74
2023/04/29 10:25:52;;;;;;;5.88;2.50;;;;;;;24.95;18.32;99454.06;5040668;28;20298;-74
2023/04/29 10:28:19;;;;;;;7.22;1.83;;;;;;;24.72;18.55;99457.88;5041085;28;20078;-74
2023/04/29 10:30:53;;;;;;;9.25;2.30;;;;;;;24.58;18.87;99459.31;5040922;28;20047;-74
2023/04/29 10:33:21;;;;;;;4.18;2.10;;;;;;;24.66;19.11;99458.88;5040480;28;20052;-74
2023/04/29 10:35:50;;;;;;;11.02;2.40;;;;;;;25.48;18.45;99478.56;5041301;28;20044;-73
2023/04/29 10:38:30;;;;;;;3.25;2.20;;;;;;;27.05;16.99;99487.47;5024119;28;20058;-74
2023/04/29 10:40:59;;;;;;;6.72;2.30;;;;;;;28.84;15.66;99478.69;5057362;28;20048;-73
2023/04/29 10:43:25;;;;;;;5.47;2.03;;;;;;;29.74;14.90;99493.81;5040714;28;20058;-74
2023/04/29 10:46:16;;;;;;;6.30;1.90;;;;;;;30.56;14.05;99496.31;5040333;28;20139;-74
2023/04/29 10:48:45;;;;;;;3.95;1.80;;;;;;;31.97;12.90;99504.25;5056818;28;20036;-74
2023/04/29 10:51:13;;;;;;;3.95;1.80;;;;;;;32.75;12.00;99501.47;5024145;28;20040;-74
2023/04/29 10:53:58;;;;;;;12.75;2.60;;;;;;;32.83;12.25;99514.47;5041193;28;20185;-73
2023/04/29 10:56:36;;;;;;;3.95;1.85;;;;;;;31.81;12.32;99508.34;5063638;28;20523;-73
2023/04/29 10:59:01;;;;;;;4.90;2.00;;;;;;;30.91;12.76;99504.13;5095964;28;20044;-73
2023/04/29 11:01:51;;;;;;;4.50;1.75;;;;;;;31.61;12.65;99511.44;5060277;28;20055;-73
2023/04/29 11:04:19;;;;;;;3.53;1.90;;;;;;;32.10;12.82;99509.00;5073347;28;20039;-75
2023/04/29 11:06:52;;;;;;;5.70;1.83;;;;;;;32.76;11.89;99513.25;5059229;28;20052;-74
2023/04/29 11:09:19;;;;;;;5.63;1.80;;;;;;;32.37;11.99;99522.81;5076486;28;20040;-73
2023/04/29 11:11:57;;;;;;;6.05;1.85;;;;;;;31.38;12.24;99527.97;5068651;28;20057;-74
2023/04/29 11:14:35;;;;;;;8.55;2.50;;;;;;;30.03;13.36;99519.31;5050822;28;20040;-73
2023/04/29 11:17:22;;;;;;;4.50;1.88;;;;;;;28.88;14.16;99491.53;5100178;28;20095;-74
2023/04/29 11:19:52;;;;;;;4.82;2.10;;;;;;;28.02;15.05;99504.56;5076791;28;20464;-74
2023/04/29 11:22:18;;;;;;;5.95;2.10;;;;;;;26.93;15.89;99492.34;5040931;28;20505;-74
2023/04/29 11:24:54;;;;;;;4.63;1.90;;;;;;;26.64;16.20;99490.31;5057654;28;20048;-74
2023/04/29 11:27:24;;;;;;;8.82;2.10;;;;;;;26.20;16.59;99496.03;5091256;28;20051;-74
2023/04/29 11:29:57;;;;;;;6.97;1.95;;;;;;;26.23;16.94;99500.94;5041493;28;20048;-73
2023/04/29 11:32:34;;;;;;;4.32;2.20;;;;;;;26.29;17.14;99504.53;5058544;28;20048;-74
2023/04/29 11:35:16;;;;;;;8.63;2.92;;;;;;;26.24;17.14;99510.78;5074451;28;20138;-74
2023/04/29 11:37:44;;;;;;;7.15;2.50;;;;;;;25.75;17.48;99509.28;5041113;28;20090;-74
2023/04/29 11:40:11;;;;;;;4.55;2.05;;;;;;;25.31;17.78;99502.28;5041364;28;20549;-74
2023/04/29 11:42:42;;;;;;;9.07;3.03;;;;;;;25.26;18.07;99494.09;5057677;28;20048;-74
2023/04/29 11:45:09;;;;;;;4.07;2.00;;;;;;;24.73;18.21;99496.72;5058007;28;20524;-74
2023/04/29 11:47:35;;;;;;;5.43;2.17;;;;;;;24.28;18.48;99490.69;5040752;28;20047;-74